| time (UTC) | temp F | wind direction | speed MPH | gust MPH | rain 1hr in | rain 24hr in | rain mn in | humidity % | barometer mb |
| 20260508090031 | 44 | 125 | 1.0 | 3.0 | 0.00 | 0.00 | 0.00 | 68 | 1017.2 |
| 20260508084523 | 43 | 119 | 1.0 | 3.0 | 0.00 | 0.00 | 0.00 | 67 | 1017.2 |
| 20260508083026 | 43 | 105 | 2.0 | 3.0 | 0.00 | 0.00 | 0.00 | 68 | 1017.4 |
| 20260508081521 | 44 | 104 | 1.0 | 3.0 | 0.00 | 0.00 | 0.00 | 67 | 1017.3 |
| 20260508080034 | 45 | 96 | 2.0 | 5.0 | 0.00 | 0.00 | 0.00 | 65 | 1017.3 |
| 20260508074522 | 45 | 80 | 1.0 | 3.0 | 0.00 | 0.00 | 0.00 | 66 | 1017.2 |
| 20260508073017 | 45 | 92 | 1.0 | 3.0 | 0.00 | 0.00 | 0.00 | 63 | 1017.1 |
| 20260508071513 | 44 | 94 | 1.0 | 3.0 | 0.00 | 0.00 | 0.00 | 63 | 1017.1 |
| 20260508070012 | 44 | 96 | 1.0 | 3.0 | 0.00 | 0.00 | 0.00 | 64 | 1017.1 |
| 20260508064513 | 46 | 107 | 1.0 | 3.0 | 0.00 | 0.00 | 0.00 | 62 | 1017.0 |
| 20260508063010 | 45 | 108 | 1.0 | 3.0 | 0.00 | 0.00 | 0.00 | 62 | 1016.9 |
| 20260508061510 | 47 | 96 | 1.0 | 3.0 | 0.00 | 0.00 | 0.00 | 60 | 1016.7 |
| 20260508060009 | 47 | 96 | 0.0 | 1.0 | 0.00 | 0.00 | 0.00 | 60 | 1016.6 |
| 20260508054510 | 48 | 98 | 0.0 | 3.0 | 0.00 | 0.00 | 0.00 | 57 | 1016.6 |
| 20260508053010 | 51 | 107 | 1.0 | 4.0 | 0.00 | 0.00 | 0.00 | 53 | 1016.4 |
| 20260508051508 | 53 | 87 | 0.0 | 2.0 | 0.00 | 0.00 | 0.00 | 47 | 1016.3 |
| 20260508050010 | 56 | 58 | 0.0 | 2.0 | 0.00 | 0.00 | 0.00 | 41 | 1016.3 |
| 20260508044513 | 59 | 98 | 0.0 | 2.0 | 0.00 | 0.00 | 0.00 | 38 | 1016.3 |
| 20260508043008 | 62 | 342 | 0.0 | 5.0 | 0.00 | 0.00 | 0.00 | 29 | 1016.1 |
| 20260508041507 | 62 | 298 | 1.0 | 3.0 | 0.00 | 0.00 | 0.00 | 29 | 1015.8 |
| 20260508040009 | 64 | 242 | 1.0 | 6.0 | 0.00 | 0.00 | 0.00 | 28 | 1015.6 |
| 20260508034506 | 65 | 250 | 2.0 | 6.0 | 0.00 | 0.00 | 0.00 | 28 | 1015.5 |
| 20260508033015 | 66 | 305 | 2.0 | 7.0 | 0.00 | 0.00 | 0.00 | 27 | 1015.3 |
| 20260508031507 | 67 | 289 | 1.0 | 6.0 | 0.00 | 0.00 | 0.00 | 25 | 1015.0 |
| 20260508030005 | 69 | 321 | 2.0 | 8.0 | 0.00 | 0.00 | 0.00 | 24 | 1014.7 |
| 20260508024504 | 69 | 280 | 3.0 | 11.0 | 0.00 | 0.00 | 0.00 | 23 | 1014.6 |
| 20260508023003 | 70 | 260 | 4.0 | 11.0 | 0.00 | 0.00 | 0.00 | 23 | 1014.5 |
| 20260508021503 | 72 | 278 | 5.0 | 12.0 | 0.00 | 0.00 | 0.00 | 23 | 1014.5 |
| 20260508020002 | 73 | 305 | 5.0 | 12.0 | 0.00 | 0.00 | 0.00 | 23 | 1014.4 |
| 20260508014505 | 73 | 311 | 5.0 | 12.0 | 0.00 | 0.00 | 0.00 | 21 | 1014.5 |
| 20260508013001 | 74 | 313 | 6.0 | 13.0 | 0.00 | 0.00 | 0.00 | 21 | 1014.4 |
| 20260508011604 | 74 | 267 | 6.0 | 13.0 | 0.00 | 0.00 | 0.00 | 22 | 1014.4 |
| 20260508010100 | 75 | 327 | 7.0 | 13.0 | 0.00 | 0.00 | 0.00 | 21 | 1014.5 |
| 20260508004601 | 76 | 263 | 3.0 | 9.0 | 0.00 | 0.00 | 0.00 | 21 | 1014.4 |
| 20260508003107 | 76 | 264 | 5.0 | 11.0 | 0.00 | 0.00 | 0.00 | 20 | 1014.3 |
| 20260508001603 | 77 | 267 | 4.0 | 10.0 | 0.00 | 0.00 | 0.00 | 19 | 1014.2 |
| 20260508000057 | 77 | 257 | 5.0 | 12.0 | 0.00 | 0.00 | 0.00 | 21 | 1014.1 |
| 20260507234556 | 77 | 284 | 5.0 | 11.0 | 0.00 | 0.00 | 0.00 | 20 | 1014.0 |
| 20260507233056 | 77 | 256 | 4.0 | 16.0 | 0.00 | 0.00 | 0.00 | 21 | 1014.0 |
| 20260507231558 | 77 | 240 | 4.0 | 14.0 | 0.00 | 0.00 | 0.00 | 21 | 1014.2 |
| 20260507230053 | 78 | 340 | 6.0 | 11.0 | 0.00 | 0.00 | 0.00 | 20 | 1014.2 |
| 20260507224559 | 77 | 284 | 3.0 | 11.0 | 0.00 | 0.00 | 0.00 | 22 | 1014.6 |
| 20260507223049 | 76 | 40 | 1.0 | 12.0 | 0.00 | 0.00 | 0.00 | 22 | 1014.6 |
| 20260507221546 | 76 | 325 | 5.0 | 10.0 | 0.00 | 0.00 | 0.00 | 21 | 1014.8 |
| 20260507220045 | 76 | 344 | 5.0 | 12.0 | 0.00 | 0.00 | 0.00 | 21 | 1014.9 |
| 20260507214542 | 76 | 335 | 6.0 | 10.0 | 0.00 | 0.00 | 0.00 | 23 | 1015.1 |
| 20260507213047 | 75 | 350 | 4.0 | 9.0 | 0.00 | 0.00 | 0.00 | 22 | 1015.2 |
| 20260507211539 | 75 | 306 | 6.0 | 11.0 | 0.00 | 0.00 | 0.00 | 24 | 1015.4 |
| 20260507210105 | 75 | 350 | 3.0 | 10.0 | 0.00 | 0.00 | 0.00 | 24 | 1015.5 |
| 20260507204533 | 74 | 320 | 5.0 | 12.0 | 0.00 | 0.00 | 0.00 | 24 | 1015.8 |
| 20260507203031 | 73 | 355 | 3.0 | 8.0 | 0.00 | 0.00 | 0.00 | 24 | 1016.0 |
| 20260507201534 | 72 | 342 | 5.0 | 11.0 | 0.00 | 0.00 | 0.00 | 26 | 1016.2 |
| 20260507200047 | 71 | 9 | 4.0 | 9.0 | 0.00 | 0.00 | 0.00 | 27 | 1016.3 |
| 20260507194524 | 70 | 326 | 5.0 | 9.0 | 0.00 | 0.00 | 0.00 | 26 | 1016.4 |
| 20260507193033 | 70 | 211 | 4.0 | 11.0 | 0.00 | 0.00 | 0.00 | 26 | 1016.6 |
| 20260507191527 | 70 | 306 | 4.0 | 10.0 | 0.00 | 0.00 | 0.00 | 27 | 1016.6 |
| 20260507190031 | 69 | 317 | 5.0 | 12.0 | 0.00 | 0.00 | 0.00 | 28 | 1016.8 |
| 20260507184519 | 70 | 309 | 4.0 | 8.0 | 0.00 | 0.00 | 0.00 | 27 | 1016.7 |
| 20260507183028 | 68 | 291 | 4.0 | 8.0 | 0.00 | 0.00 | 0.00 | 25 | 1016.9 |
| 20260507181513 | 67 | 13 | 3.0 | 10.0 | 0.00 | 0.00 | 0.00 | 32 | 1017.0 |
| 20260507180009 | 66 | 355 | 4.0 | 9.0 | 0.00 | 0.00 | 0.00 | 35 | 1017.0 |
| 20260507174509 | 66 | 344 | 3.0 | 8.0 | 0.00 | 0.00 | 0.00 | 37 | 1017.2 |
| 20260507173014 | 65 | 248 | 3.0 | 8.0 | 0.00 | 0.00 | 0.00 | 39 | 1017.5 |
| 20260507171502 | 64 | 296 | 4.0 | 8.0 | 0.00 | 0.00 | 0.00 | 40 | 1017.5 |
| 20260507170000 | 63 | 340 | 3.0 | 6.0 | 0.00 | 0.00 | 0.00 | 40 | 1017.5 |
| 20260507164606 | 62 | 217 | 2.0 | 5.0 | 0.00 | 0.00 | 0.00 | 44 | 1017.6 |
| 20260507163055 | 61 | 26 | 1.0 | 4.0 | 0.00 | 0.00 | 0.00 | 47 | 1017.7 |
| 20260507161607 | 60 | 321 | 1.0 | 4.0 | 0.00 | 0.00 | 0.00 | 49 | 1017.9 |
| 20260507160104 | 59 | 267 | 2.0 | 3.0 | 0.00 | 0.00 | 0.00 | 52 | 1018.0 |
| 20260507154547 | 58 | 325 | 0.0 | 2.0 | 0.00 | 0.00 | 0.00 | 57 | 1018.1 |
| 20260507153044 | 56 | 92 | 0.0 | 3.0 | 0.00 | 0.00 | 0.00 | 62 | 1018.2 |
| 20260507151539 | 54 | 96 | 1.0 | 4.0 | 0.00 | 0.00 | 0.00 | 64 | 1018.3 |
| 20260507150035 | 52 | 101 | 1.0 | 3.0 | 0.00 | 0.00 | 0.00 | 69 | 1018.4 |
| 20260507144543 | 50 | 94 | 2.0 | 4.0 | 0.00 | 0.00 | 0.00 | 71 | 1018.4 |
| 20260507143029 | 48 | 83 | 1.0 | 4.0 | 0.00 | 0.00 | 0.00 | 75 | 1018.3 |
| 20260507141528 | 47 | 88 | 2.0 | 8.0 | 0.00 | 0.00 | 0.00 | 75 | 1018.4 |
| 20260507140024 | 46 | 93 | 1.0 | 5.0 | 0.00 | 0.00 | 0.00 | 77 | 1018.2 |
| 20260507134523 | 44 | 113 | 1.0 | 4.0 | 0.00 | 0.00 | 0.00 | 81 | 1017.9 |
| 20260507133021 | 43 | 98 | 1.0 | 4.0 | 0.00 | 0.00 | 0.00 | 82 | 1017.8 |
| 20260507131528 | 42 | 123 | 0.0 | 3.0 | 0.00 | 0.00 | 0.00 | 84 | 1017.7 |
| 20260507130029 | 42 | 113 | 0.0 | 2.0 | 0.00 | 0.00 | 0.00 | 84 | 1017.7 |
| 20260507124519 | 43 | 159 | 1.0 | 3.0 | 0.00 | 0.00 | 0.00 | 81 | 1017.7 |
| 20260507123027 | 43 | 94 | 0.0 | 5.0 | 0.00 | 0.00 | 0.00 | 83 | 1017.7 |
| 20260507121518 | 42 | 119 | 1.0 | 3.0 | 0.00 | 0.00 | 0.00 | 82 | 1017.5 |
| 20260507120017 | 43 | 98 | 2.0 | 5.0 | 0.00 | 0.00 | 0.00 | 81 | 1017.5 |
| 20260507114516 | 43 | 114 | 1.0 | 5.0 | 0.00 | 0.00 | 0.00 | 82 | 1017.6 |
| 20260507113024 | 41 | 121 | 1.0 | 3.0 | 0.00 | 0.00 | 0.00 | 83 | 1017.5 |
| 20260507111513 | 42 | 94 | 1.0 | 2.0 | 0.00 | 0.00 | 0.00 | 82 | 1017.5 |
| 20260507110011 | 42 | 109 | 1.0 | 3.0 | 0.00 | 0.00 | 0.00 | 82 | 1017.5 |
| 20260507104508 | 44 | 111 | 1.0 | 4.0 | 0.00 | 0.00 | 0.00 | 81 | 1017.5 |
| 20260507103006 | 44 | 103 | 0.0 | 3.0 | 0.00 | 0.00 | 0.00 | 81 | 1017.6 |
| 20260507101512 | 44 | 123 | 1.0 | 3.0 | 0.00 | 0.00 | 0.00 | 81 | 1017.6 |
| 20260507100002 | 44 | 116 | 1.0 | 3.0 | 0.00 | 0.00 | 0.00 | 80 | 1017.5 |
| 20260507094559 | 45 | 111 | 0.0 | 2.0 | 0.00 | 0.00 | 0.00 | 81 | 1017.6 |
| 20260507093100 | 44 | 111 | 0.0 | 3.0 | 0.00 | 0.00 | 0.00 | 80 | 1017.6 |
| 20260507091556 | 45 | 113 | 1.0 | 3.0 | 0.00 | 0.00 | 0.00 | 80 | 1017.6 |